sensor_id;sensor_type;location;lat;lon;timestamp;P1;durP1;ratioP1;P2;durP2;ratioP2
15526;SDS011;7865;50.918;4.510;2022-09-21T00:00:28;11.53;;;8.30;;
15526;SDS011;7865;50.918;4.510;2022-09-21T00:05:30;16.07;;;8.43;;
15526;SDS011;7865;50.918;4.510;2022-09-21T00:10:32;12.23;;;8.63;;
15526;SDS011;7865;50.918;4.510;2022-09-21T00:15:34;11.97;;;8.20;;
15526;SDS011;7865;50.918;4.510;2022-09-21T00:20:42;14.67;;;8.47;;
15526;SDS011;7865;50.918;4.510;2022-09-21T00:25:43;11.27;;;7.30;;
15526;SDS011;7865;50.918;4.510;2022-09-21T00:30:45;13.90;;;6.90;;
15526;SDS011;7865;50.918;4.510;2022-09-21T00:35:51;13.77;;;7.47;;
15526;SDS011;7865;50.918;4.510;2022-09-21T00:40:52;12.50;;;8.37;;
15526;SDS011;7865;50.918;4.510;2022-09-21T00:45:56;9.50;;;7.93;;
15526;SDS011;7865;50.918;4.510;2022-09-21T00:51:04;12.40;;;7.57;;
15526;SDS011;7865;50.918;4.510;2022-09-21T00:56:07;13.90;;;7.90;;
15526;SDS011;7865;50.918;4.510;2022-09-21T01:01:11;15.40;;;8.27;;
15526;SDS011;7865;50.918;4.510;2022-09-21T01:06:18;11.03;;;7.97;;
15526;SDS011;7865;50.918;4.510;2022-09-21T01:16:34;14.10;;;8.07;;
15526;SDS011;7865;50.918;4.510;2022-09-21T01:22:06;11.97;;;7.93;;
15526;SDS011;7865;50.918;4.510;2022-09-21T01:39:05;13.80;;;9.23;;
15526;SDS011;7865;50.918;4.510;2022-09-21T01:43:46;12.93;;;8.73;;
15526;SDS011;7865;50.918;4.510;2022-09-21T01:48:52;14.60;;;8.57;;
15526;SDS011;7865;50.918;4.510;2022-09-21T01:54:00;14.30;;;8.47;;
15526;SDS011;7865;50.918;4.510;2022-09-21T02:04:23;12.60;;;8.37;;
15526;SDS011;7865;50.918;4.510;2022-09-21T02:09:25;11.53;;;7.53;;
15526;SDS011;7865;50.918;4.510;2022-09-21T02:14:27;11.53;;;7.17;;
15526;SDS011;7865;50.918;4.510;2022-09-21T02:30:52;13.90;;;7.50;;
15526;SDS011;7865;50.918;4.510;2022-09-21T02:36:10;11.00;;;7.30;;
15526;SDS011;7865;50.918;4.510;2022-09-21T02:41:39;11.10;;;7.83;;
15526;SDS011;7865;50.918;4.510;2022-09-21T02:46:56;18.33;;;7.77;;
15526;SDS011;7865;50.918;4.510;2022-09-21T02:52:13;9.83;;;7.40;;
15526;SDS011;7865;50.918;4.510;2022-09-21T02:57:17;12.60;;;7.53;;
15526;SDS011;7865;50.918;4.510;2022-09-21T03:02:21;10.73;;;7.10;;
15526;SDS011;7865;50.918;4.510;2022-09-21T03:07:23;12.17;;;7.10;;
15526;SDS011;7865;50.918;4.510;2022-09-21T03:12:24;10.50;;;7.00;;
15526;SDS011;7865;50.918;4.510;2022-09-21T03:17:26;10.80;;;6.97;;
15526;SDS011;7865;50.918;4.510;2022-09-21T03:22:27;9.93;;;7.13;;
15526;SDS011;7865;50.918;4.510;2022-09-21T03:27:28;11.37;;;7.87;;
15526;SDS011;7865;50.918;4.510;2022-09-21T03:32:29;12.17;;;8.73;;
15526;SDS011;7865;50.918;4.510;2022-09-21T03:37:31;10.63;;;7.77;;
15526;SDS011;7865;50.918;4.510;2022-09-21T03:42:32;13.63;;;7.10;;
15526;SDS011;7865;50.918;4.510;2022-09-21T03:47:34;10.20;;;7.10;;
15526;SDS011;7865;50.918;4.510;2022-09-21T03:52:36;8.27;;;6.30;;
15526;SDS011;7865;50.918;4.510;2022-09-21T03:57:38;11.23;;;7.80;;
15526;SDS011;7865;50.918;4.510;2022-09-21T04:02:39;12.83;;;7.60;;
15526;SDS011;7865;50.918;4.510;2022-09-21T04:07:41;11.33;;;7.37;;
15526;SDS011;7865;50.918;4.510;2022-09-21T04:12:45;11.17;;;7.47;;
15526;SDS011;7865;50.918;4.510;2022-09-21T04:17:49;15.07;;;7.80;;
15526;SDS011;7865;50.918;4.510;2022-09-21T04:22:51;16.63;;;7.57;;
15526;SDS011;7865;50.918;4.510;2022-09-21T04:27:52;16.13;;;7.17;;
15526;SDS011;7865;50.918;4.510;2022-09-21T04:32:54;15.77;;;7.40;;
15526;SDS011;7865;50.918;4.510;2022-09-21T04:37:55;12.60;;;8.47;;
15526;SDS011;7865;50.918;4.510;2022-09-21T04:42:56;10.30;;;7.33;;
15526;SDS011;7865;50.918;4.510;2022-09-21T04:47:58;14.07;;;8.60;;
15526;SDS011;7865;50.918;4.510;2022-09-21T04:52:59;16.80;;;8.90;;
15526;SDS011;7865;50.918;4.510;2022-09-21T04:58:00;13.13;;;8.30;;
15526;SDS011;7865;50.918;4.510;2022-09-21T05:03:01;19.17;;;8.70;;
15526;SDS011;7865;50.918;4.510;2022-09-21T05:08:03;12.17;;;8.37;;
15526;SDS011;7865;50.918;4.510;2022-09-21T05:13:04;13.07;;;9.00;;
15526;SDS011;7865;50.918;4.510;2022-09-21T05:18:05;12.77;;;8.73;;
15526;SDS011;7865;50.918;4.510;2022-09-21T05:23:06;11.97;;;8.10;;
15526;SDS011;7865;50.918;4.510;2022-09-21T05:28:07;11.47;;;9.10;;
15526;SDS011;7865;50.918;4.510;2022-09-21T05:33:09;12.40;;;8.33;;
15526;SDS011;7865;50.918;4.510;2022-09-21T05:38:18;14.40;;;9.27;;
15526;SDS011;7865;50.918;4.510;2022-09-21T05:43:20;13.90;;;8.80;;
15526;SDS011;7865;50.918;4.510;2022-09-21T05:48:40;10.80;;;8.13;;
15526;SDS011;7865;50.918;4.510;2022-09-21T05:53:56;13.97;;;8.90;;
15526;SDS011;7865;50.918;4.510;2022-09-21T06:04:26;21.17;;;13.07;;
15526;SDS011;7865;50.918;4.510;2022-09-21T06:09:27;21.20;;;12.33;;
15526;SDS011;7865;50.918;4.510;2022-09-21T06:14:28;19.13;;;12.47;;
15526;SDS011;7865;50.918;4.510;2022-09-21T06:19:29;15.37;;;11.90;;
15526;SDS011;7865;50.918;4.510;2022-09-21T06:24:30;15.50;;;11.90;;
15526;SDS011;7865;50.918;4.510;2022-09-21T06:29:32;19.53;;;11.20;;
15526;SDS011;7865;50.918;4.510;2022-09-21T06:34:33;19.63;;;11.00;;
15526;SDS011;7865;50.918;4.510;2022-09-21T06:39:34;17.90;;;11.30;;
15526;SDS011;7865;50.918;4.510;2022-09-21T06:44:35;14.63;;;10.27;;
15526;SDS011;7865;50.918;4.510;2022-09-21T06:49:36;17.17;;;11.00;;
15526;SDS011;7865;50.918;4.510;2022-09-21T06:54:42;18.53;;;10.63;;
15526;SDS011;7865;50.918;4.510;2022-09-21T06:59:44;16.73;;;11.27;;
15526;SDS011;7865;50.918;4.510;2022-09-21T07:04:45;20.07;;;11.80;;
15526;SDS011;7865;50.918;4.510;2022-09-21T07:09:47;16.20;;;10.83;;
15526;SDS011;7865;50.918;4.510;2022-09-21T07:15:08;15.07;;;10.87;;
15526;SDS011;7865;50.918;4.510;2022-09-21T07:20:10;17.93;;;10.80;;
15526;SDS011;7865;50.918;4.510;2022-09-21T07:25:12;19.10;;;10.73;;
15526;SDS011;7865;50.918;4.510;2022-09-21T07:30:14;15.80;;;11.90;;
15526;SDS011;7865;50.918;4.510;2022-09-21T07:35:15;17.10;;;13.03;;
15526;SDS011;7865;50.918;4.510;2022-09-21T07:40:17;18.40;;;13.07;;
15526;SDS011;7865;50.918;4.510;2022-09-21T07:45:24;19.83;;;14.43;;
15526;SDS011;7865;50.918;4.510;2022-09-21T07:50:26;21.93;;;15.53;;
15526;SDS011;7865;50.918;4.510;2022-09-21T07:55:27;20.70;;;16.63;;
15526;SDS011;7865;50.918;4.510;2022-09-21T08:00:29;20.37;;;14.23;;
15526;SDS011;7865;50.918;4.510;2022-09-21T08:05:32;21.47;;;16.37;;
15526;SDS011;7865;50.918;4.510;2022-09-21T08:10:33;20.97;;;16.47;;
15526;SDS011;7865;50.918;4.510;2022-09-21T08:15:35;16.97;;;14.80;;
15526;SDS011;7865;50.918;4.510;2022-09-21T08:20:53;16.93;;;14.60;;
15526;SDS011;7865;50.918;4.510;2022-09-21T08:25:59;22.30;;;16.13;;
15526;SDS011;7865;50.918;4.510;2022-09-21T08:31:05;18.40;;;13.83;;
15526;SDS011;7865;50.918;4.510;2022-09-21T08:36:08;14.20;;;12.20;;
15526;SDS011;7865;50.918;4.510;2022-09-21T08:41:18;23.70;;;11.05;;
15526;SDS011;7865;50.918;4.510;2022-09-21T08:46:22;12.30;;;9.55;;
15526;SDS011;7865;50.918;4.510;2022-09-21T08:51:31;14.23;;;8.43;;
15526;SDS011;7865;50.918;4.510;2022-09-21T08:56:35;19.90;;;7.90;;
15526;SDS011;7865;50.918;4.510;2022-09-21T09:02:00;9.60;;;6.95;;
15526;SDS011;7865;50.918;4.510;2022-09-21T09:18:10;7.40;;;4.72;;
15526;SDS011;7865;50.918;4.510;2022-09-21T09:28:32;10.07;;;4.60;;
15526;SDS011;7865;50.918;4.510;2022-09-21T09:39:00;7.03;;;2.40;;
15526;SDS011;7865;50.918;4.510;2022-09-21T09:54:34;3.75;;;2.33;;
15526;SDS011;7865;50.918;4.510;2022-09-21T09:59:38;8.45;;;2.33;;
15526;SDS011;7865;50.918;4.510;2022-09-21T10:04:56;6.00;;;2.25;;
15526;SDS011;7865;50.918;4.510;2022-09-21T10:15:28;4.43;;;1.92;;
15526;SDS011;7865;50.918;4.510;2022-09-21T10:20:29;3.85;;;1.67;;
15526;SDS011;7865;50.918;4.510;2022-09-21T10:25:33;3.85;;;1.70;;
15526;SDS011;7865;50.918;4.510;2022-09-21T10:30:40;4.93;;;1.42;;
15526;SDS011;7865;50.918;4.510;2022-09-21T10:35:49;2.88;;;1.48;;
15526;SDS011;7865;50.918;4.510;2022-09-21T10:40:51;1.95;;;1.30;;
15526;SDS011;7865;50.918;4.510;2022-09-21T10:45:54;4.30;;;1.50;;
15526;SDS011;7865;50.918;4.510;2022-09-21T10:50:57;3.15;;;1.77;;
15526;SDS011;7865;50.918;4.510;2022-09-21T10:56:02;7.55;;;1.65;;
15526;SDS011;7865;50.918;4.510;2022-09-21T11:01:20;5.82;;;1.65;;
15526;SDS011;7865;50.918;4.510;2022-09-21T11:06:29;2.83;;;1.30;;
15526;SDS011;7865;50.918;4.510;2022-09-21T11:27:39;3.58;;;0.95;;
15526;SDS011;7865;50.918;4.510;2022-09-21T11:32:58;3.45;;;1.08;;
15526;SDS011;7865;50.918;4.510;2022-09-21T11:43:50;5.05;;;1.27;;
15526;SDS011;7865;50.918;4.510;2022-09-21T11:54:42;4.63;;;1.30;;
15526;SDS011;7865;50.918;4.510;2022-09-21T12:16:34;2.50;;;1.02;;
15526;SDS011;7865;50.918;4.510;2022-09-21T12:21:41;2.92;;;0.80;;
15526;SDS011;7865;50.918;4.510;2022-09-21T12:26:57;3.42;;;1.27;;
15526;SDS011;7865;50.918;4.510;2022-09-21T12:32:11;4.05;;;1.38;;
15526;SDS011;7865;50.918;4.510;2022-09-21T12:37:58;4.53;;;1.00;;
15526;SDS011;7865;50.918;4.510;2022-09-21T12:48:32;3.92;;;0.95;;
15526;SDS011;7865;50.918;4.510;2022-09-21T12:53:39;3.10;;;1.23;;
15526;SDS011;7865;50.918;4.510;2022-09-21T12:59:05;5.40;;;1.30;;
15526;SDS011;7865;50.918;4.510;2022-09-21T13:04:35;4.40;;;1.05;;
15526;SDS011;7865;50.918;4.510;2022-09-21T13:09:43;3.05;;;1.30;;
15526;SDS011;7865;50.918;4.510;2022-09-21T13:14:47;3.78;;;1.10;;
15526;SDS011;7865;50.918;4.510;2022-09-21T13:19:55;2.95;;;1.15;;
15526;SDS011;7865;50.918;4.510;2022-09-21T13:25:18;4.45;;;1.20;;
15526;SDS011;7865;50.918;4.510;2022-09-21T13:30:31;3.33;;;0.98;;
15526;SDS011;7865;50.918;4.510;2022-09-21T13:57:17;2.10;;;1.02;;
15526;SDS011;7865;50.918;4.510;2022-09-21T14:02:27;5.28;;;1.05;;
15526;SDS011;7865;50.918;4.510;2022-09-21T14:07:32;3.47;;;1.10;;
15526;SDS011;7865;50.918;4.510;2022-09-21T14:12:41;3.75;;;1.10;;
15526;SDS011;7865;50.918;4.510;2022-09-21T14:17:44;1.15;;;1.00;;
15526;SDS011;7865;50.918;4.510;2022-09-21T14:28:32;5.60;;;1.40;;
15526;SDS011;7865;50.918;4.510;2022-09-21T14:33:44;4.47;;;1.20;;
15526;SDS011;7865;50.918;4.510;2022-09-21T14:38:53;4.03;;;1.10;;
15526;SDS011;7865;50.918;4.510;2022-09-21T14:44:00;3.53;;;1.40;;
15526;SDS011;7865;50.918;4.510;2022-09-21T14:49:09;4.07;;;0.88;;
15526;SDS011;7865;50.918;4.510;2022-09-21T15:05:22;2.65;;;0.80;;
15526;SDS011;7865;50.918;4.510;2022-09-21T15:21:40;4.55;;;1.00;;
15526;SDS011;7865;50.918;4.510;2022-09-21T15:26:45;1.08;;;0.73;;
15526;SDS011;7865;50.918;4.510;2022-09-21T15:31:49;2.67;;;0.85;;
15526;SDS011;7865;50.918;4.510;2022-09-21T15:36:51;3.42;;;0.93;;
15526;SDS011;7865;50.918;4.510;2022-09-21T15:47:26;3.50;;;1.02;;
15526;SDS011;7865;50.918;4.510;2022-09-21T15:52:33;3.00;;;1.05;;
15526;SDS011;7865;50.918;4.510;2022-09-21T15:57:40;2.13;;;1.20;;
15526;SDS011;7865;50.918;4.510;2022-09-21T16:02:49;2.63;;;0.90;;
15526;SDS011;7865;50.918;4.510;2022-09-21T16:13:47;5.97;;;1.10;;
15526;SDS011;7865;50.918;4.510;2022-09-21T16:24:54;3.50;;;1.52;;
15526;SDS011;7865;50.918;4.510;2022-09-21T16:29:58;2.53;;;1.30;;
15526;SDS011;7865;50.918;4.510;2022-09-21T16:40:31;3.97;;;1.33;;
15526;SDS011;7865;50.918;4.510;2022-09-21T16:45:32;2.70;;;1.50;;
15526;SDS011;7865;50.918;4.510;2022-09-21T16:50:35;3.53;;;1.20;;
15526;SDS011;7865;50.918;4.510;2022-09-21T16:55:36;7.68;;;2.20;;
15526;SDS011;7865;50.918;4.510;2022-09-21T17:00:38;6.47;;;4.38;;
15526;SDS011;7865;50.918;4.510;2022-09-21T17:05:41;6.40;;;3.67;;
15526;SDS011;7865;50.918;4.510;2022-09-21T17:10:43;5.35;;;2.13;;
15526;SDS011;7865;50.918;4.510;2022-09-21T17:15:45;5.28;;;1.75;;
15526;SDS011;7865;50.918;4.510;2022-09-21T17:20:48;4.10;;;1.93;;
15526;SDS011;7865;50.918;4.510;2022-09-21T17:25:50;8.70;;;2.23;;
15526;SDS011;7865;50.918;4.510;2022-09-21T17:30:52;6.83;;;2.50;;
15526;SDS011;7865;50.918;4.510;2022-09-21T17:35:53;6.30;;;2.40;;
15526;SDS011;7865;50.918;4.510;2022-09-21T17:40:56;6.20;;;1.70;;
15526;SDS011;7865;50.918;4.510;2022-09-21T17:46:04;4.90;;;1.80;;
15526;SDS011;7865;50.918;4.510;2022-09-21T17:51:10;3.07;;;1.40;;
15526;SDS011;7865;50.918;4.510;2022-09-21T18:01:34;5.77;;;2.93;;
15526;SDS011;7865;50.918;4.510;2022-09-21T18:06:41;6.30;;;2.20;;
15526;SDS011;7865;50.918;4.510;2022-09-21T18:28:11;3.07;;;1.50;;
15526;SDS011;7865;50.918;4.510;2022-09-21T18:33:45;7.50;;;1.67;;
15526;SDS011;7865;50.918;4.510;2022-09-21T18:38:55;7.90;;;1.83;;
15526;SDS011;7865;50.918;4.510;2022-09-21T18:54:57;3.47;;;2.10;;
15526;SDS011;7865;50.918;4.510;2022-09-21T18:59:59;3.60;;;1.70;;
15526;SDS011;7865;50.918;4.510;2022-09-21T19:05:00;10.53;;;2.33;;
15526;SDS011;7865;50.918;4.510;2022-09-21T19:10:19;4.27;;;1.80;;
15526;SDS011;7865;50.918;4.510;2022-09-21T19:15:27;5.37;;;2.17;;
15526;SDS011;7865;50.918;4.510;2022-09-21T19:26:11;4.10;;;2.20;;
15526;SDS011;7865;50.918;4.510;2022-09-21T19:31:17;3.47;;;2.40;;
15526;SDS011;7865;50.918;4.510;2022-09-21T19:36:19;26.67;;;3.80;;
15526;SDS011;7865;50.918;4.510;2022-09-21T19:41:28;5.63;;;2.33;;
15526;SDS011;7865;50.918;4.510;2022-09-21T19:46:36;5.00;;;2.50;;
15526;SDS011;7865;50.918;4.510;2022-09-21T19:52:07;4.57;;;2.37;;
15526;SDS011;7865;50.918;4.510;2022-09-21T19:57:16;6.63;;;2.17;;
15526;SDS011;7865;50.918;4.510;2022-09-21T20:02:39;3.67;;;2.73;;
15526;SDS011;7865;50.918;4.510;2022-09-21T20:23:37;6.53;;;3.60;;
15526;SDS011;7865;50.918;4.510;2022-09-21T20:28:39;6.60;;;4.23;;
15526;SDS011;7865;50.918;4.510;2022-09-21T20:33:41;9.20;;;4.20;;
15526;SDS011;7865;50.918;4.510;2022-09-21T20:38:42;8.13;;;4.13;;
15526;SDS011;7865;50.918;4.510;2022-09-21T20:43:44;5.63;;;4.40;;
15526;SDS011;7865;50.918;4.510;2022-09-21T20:48:45;8.43;;;4.90;;
15526;SDS011;7865;50.918;4.510;2022-09-21T20:53:46;8.17;;;6.20;;
15526;SDS011;7865;50.918;4.510;2022-09-21T20:58:48;11.57;;;7.63;;
15526;SDS011;7865;50.918;4.510;2022-09-21T21:03:49;13.20;;;9.27;;
15526;SDS011;7865;50.918;4.510;2022-09-21T21:08:50;8.93;;;7.23;;
15526;SDS011;7865;50.918;4.510;2022-09-21T21:13:52;12.53;;;7.93;;
15526;SDS011;7865;50.918;4.510;2022-09-21T21:18:55;10.10;;;8.30;;
15526;SDS011;7865;50.918;4.510;2022-09-21T21:23:56;9.23;;;7.20;;
15526;SDS011;7865;50.918;4.510;2022-09-21T21:29:16;12.10;;;7.40;;
15526;SDS011;7865;50.918;4.510;2022-09-21T21:34:17;11.40;;;7.17;;
15526;SDS011;7865;50.918;4.510;2022-09-21T21:39:18;10.67;;;7.33;;
15526;SDS011;7865;50.918;4.510;2022-09-21T21:44:20;10.80;;;8.20;;
15526;SDS011;7865;50.918;4.510;2022-09-21T21:49:22;13.67;;;7.10;;
15526;SDS011;7865;50.918;4.510;2022-09-21T21:54:24;9.53;;;7.47;;
15526;SDS011;7865;50.918;4.510;2022-09-21T21:59:26;9.73;;;7.43;;
15526;SDS011;7865;50.918;4.510;2022-09-21T22:04:27;15.97;;;7.83;;
15526;SDS011;7865;50.918;4.510;2022-09-21T22:09:28;11.47;;;7.93;;
15526;SDS011;7865;50.918;4.510;2022-09-21T22:14:29;11.40;;;6.80;;
15526;SDS011;7865;50.918;4.510;2022-09-21T22:19:31;11.67;;;7.37;;
15526;SDS011;7865;50.918;4.510;2022-09-21T22:24:32;10.03;;;6.23;;
15526;SDS011;7865;50.918;4.510;2022-09-21T22:29:33;10.47;;;6.70;;
15526;SDS011;7865;50.918;4.510;2022-09-21T22:34:35;7.83;;;5.43;;
15526;SDS011;7865;50.918;4.510;2022-09-21T22:39:37;8.73;;;5.73;;
15526;SDS011;7865;50.918;4.510;2022-09-21T22:44:38;8.03;;;5.80;;
15526;SDS011;7865;50.918;4.510;2022-09-21T22:49:39;10.10;;;5.40;;
15526;SDS011;7865;50.918;4.510;2022-09-21T22:54:40;11.33;;;6.37;;
15526;SDS011;7865;50.918;4.510;2022-09-21T22:59:41;7.13;;;5.37;;
15526;SDS011;7865;50.918;4.510;2022-09-21T23:04:43;8.93;;;5.20;;
15526;SDS011;7865;50.918;4.510;2022-09-21T23:09:45;10.43;;;5.50;;
15526;SDS011;7865;50.918;4.510;2022-09-21T23:14:46;8.50;;;6.13;;
15526;SDS011;7865;50.918;4.510;2022-09-21T23:19:47;8.67;;;5.63;;
15526;SDS011;7865;50.918;4.510;2022-09-21T23:24:48;8.33;;;5.77;;
15526;SDS011;7865;50.918;4.510;2022-09-21T23:29:50;9.93;;;6.37;;
15526;SDS011;7865;50.918;4.510;2022-09-21T23:34:51;10.10;;;6.37;;
15526;SDS011;7865;50.918;4.510;2022-09-21T23:39:52;11.83;;;7.27;;
15526;SDS011;7865;50.918;4.510;2022-09-21T23:44:53;11.20;;;7.00;;
15526;SDS011;7865;50.918;4.510;2022-09-21T23:49:55;8.73;;;6.47;;
15526;SDS011;7865;50.918;4.510;2022-09-21T23:54:56;12.43;;;7.20;;
15526;SDS011;7865;50.918;4.510;2022-09-21T23:59:57;12.47;;;7.30;;
